createdAt,value
2023-08-31T00:02:20.492Z,11.77
2023-08-31T00:04:47.103Z,11.85
2023-08-31T00:07:13.568Z,11.88
2023-08-31T00:09:40.218Z,11.88
2023-08-31T00:12:06.909Z,11.84
2023-08-31T00:14:33.634Z,11.83
2023-08-31T00:17:00.045Z,11.81
2023-08-31T00:19:26.507Z,11.82
2023-08-31T00:21:52.913Z,11.83
2023-08-31T00:24:22.889Z,11.84
2023-08-31T00:26:52.169Z,11.84
2023-08-31T00:29:19.083Z,11.84
2023-08-31T00:31:45.809Z,11.86
2023-08-31T00:34:15.840Z,11.86
2023-08-31T00:36:42.329Z,11.88
2023-08-31T00:39:11.253Z,11.91
2023-08-31T00:41:38.703Z,11.91
2023-08-31T00:44:06.096Z,11.90
2023-08-31T00:46:35.956Z,11.90
2023-08-31T00:49:04.991Z,11.92
2023-08-31T00:51:33.264Z,11.93
2023-08-31T00:54:00.326Z,11.96
2023-08-31T00:56:27.655Z,11.97
2023-08-31T00:58:55.599Z,11.98
2023-08-31T01:01:28.683Z,12.01
2023-08-31T01:04:04.357Z,12.03
2023-08-31T01:07:04.174Z,12.01
2023-08-31T01:09:40.758Z,12.02
2023-08-31T01:12:12.640Z,12.00
2023-08-31T01:15:11.367Z,12.01
2023-08-31T01:17:45.860Z,11.99
2023-08-31T01:20:17.174Z,12.01
2023-08-31T01:22:56.496Z,12.00
2023-08-31T01:25:23.488Z,12.00
2023-08-31T01:27:50.179Z,12.00
2023-08-31T01:30:16.588Z,12.01
2023-08-31T01:32:46.700Z,12.02
2023-08-31T01:35:17.056Z,12.02
2023-08-31T01:37:58.199Z,12.02
2023-08-31T01:40:33.584Z,12.04
2023-08-31T01:43:02.457Z,12.04
2023-08-31T01:45:29.378Z,12.05
2023-08-31T01:47:57.176Z,12.05
2023-08-31T01:50:23.784Z,12.05
2023-08-31T01:52:50.189Z,12.09
2023-08-31T01:55:17.049Z,12.15
2023-08-31T01:57:43.568Z,12.21
2023-08-31T02:00:11.983Z,12.24
2023-08-31T02:02:38.591Z,12.28
2023-08-31T02:05:05.580Z,12.30
2023-08-31T02:07:32.072Z,12.29
2023-08-31T02:09:58.533Z,12.30
2023-08-31T02:12:25.104Z,12.38
2023-08-31T02:14:51.764Z,12.42
2023-08-31T02:17:18.262Z,12.45
2023-08-31T02:19:44.746Z,12.46
2023-08-31T02:22:13.626Z,12.49
2023-08-31T02:24:40.088Z,12.48
2023-08-31T02:27:06.698Z,12.51
2023-08-31T02:29:33.142Z,12.56
2023-08-31T02:31:59.687Z,12.61
2023-08-31T02:34:26.306Z,12.57
2023-08-31T02:36:52.692Z,12.56
2023-08-31T02:39:19.293Z,12.54
2023-08-31T02:41:45.773Z,12.55
2023-08-31T02:44:12.603Z,12.52
2023-08-31T02:46:39.788Z,12.51
2023-08-31T02:49:06.246Z,12.51
2023-08-31T02:51:32.685Z,12.52
2023-08-31T02:53:59.191Z,12.54
2023-08-31T02:56:25.715Z,12.51
2023-08-31T02:58:52.167Z,12.50
2023-08-31T03:01:18.730Z,12.49
2023-08-31T03:03:47.100Z,12.48
2023-08-31T03:06:13.659Z,12.47
2023-08-31T03:08:40.081Z,12.45
2023-08-31T03:11:06.853Z,12.45
2023-08-31T03:13:33.944Z,12.47
2023-08-31T03:16:01.686Z,12.50
2023-08-31T03:18:29.026Z,12.50
2023-08-31T03:20:56.281Z,12.52
2023-08-31T03:23:22.798Z,12.53
2023-08-31T03:25:49.330Z,12.51
2023-08-31T03:28:15.840Z,12.46
2023-08-31T03:30:42.521Z,12.43
2023-08-31T03:33:09.685Z,12.37
2023-08-31T03:35:36.917Z,12.34
2023-08-31T03:38:03.487Z,12.34
2023-08-31T03:40:32.874Z,12.36
2023-08-31T03:42:59.718Z,12.33
2023-08-31T03:45:26.244Z,12.32
2023-08-31T03:47:52.777Z,12.29
2023-08-31T03:50:19.899Z,12.28
2023-08-31T03:52:46.394Z,12.32
2023-08-31T03:55:12.892Z,12.31
2023-08-31T03:57:39.312Z,12.29
2023-08-31T04:00:13.834Z,12.25
2023-08-31T04:02:44.855Z,12.22
2023-08-31T04:05:12.525Z,12.19
2023-08-31T04:07:39.023Z,12.18
2023-08-31T04:10:06.131Z,12.19
2023-08-31T04:12:32.793Z,12.23
2023-08-31T04:14:59.340Z,12.21
2023-08-31T04:17:26.184Z,12.18
2023-08-31T04:19:53.116Z,12.17
2023-08-31T04:22:19.692Z,12.15
2023-08-31T04:24:47.648Z,12.14
2023-08-31T04:27:14.328Z,12.14
2023-08-31T04:29:41.080Z,12.15
2023-08-31T04:32:07.527Z,12.18
2023-08-31T04:34:34.057Z,12.20
2023-08-31T04:37:00.591Z,12.19
2023-08-31T04:39:27.872Z,12.22
2023-08-31T04:41:54.353Z,12.23
2023-08-31T04:44:20.986Z,12.22
2023-08-31T04:46:47.462Z,12.24
2023-08-31T04:49:13.965Z,12.24
2023-08-31T04:51:42.633Z,12.25
2023-08-31T04:54:09.193Z,12.24
2023-08-31T04:56:35.686Z,12.25
2023-08-31T04:59:04.047Z,12.23
2023-08-31T05:01:30.679Z,12.25
2023-08-31T05:03:57.359Z,12.24
2023-08-31T05:06:23.877Z,12.23
2023-08-31T05:08:50.646Z,12.23
2023-08-31T05:11:17.356Z,12.25
2023-08-31T05:13:43.936Z,12.26
2023-08-31T05:16:10.752Z,12.24
2023-08-31T05:18:38.957Z,12.24
2023-08-31T05:21:05.552Z,12.25
2023-08-31T05:23:32.077Z,12.26
2023-08-31T05:25:58.956Z,12.26
2023-08-31T05:28:25.637Z,12.29
2023-08-31T05:30:53.678Z,12.33
2023-08-31T05:33:21.616Z,12.38
2023-08-31T05:35:48.184Z,12.42
2023-08-31T05:38:14.932Z,12.45
2023-08-31T05:40:46.604Z,12.50
2023-08-31T05:43:14.690Z,12.54
2023-08-31T05:45:41.373Z,12.60
2023-08-31T05:48:08.884Z,12.64
2023-08-31T05:50:37.838Z,12.66
2023-08-31T05:53:05.529Z,12.68
2023-08-31T05:55:33.797Z,12.71
2023-08-31T05:58:01.574Z,12.76
2023-08-31T06:00:28.008Z,12.78
2023-08-31T06:02:54.698Z,12.78
2023-08-31T06:05:21.193Z,12.75
2023-08-31T06:07:47.566Z,12.72
2023-08-31T06:10:16.062Z,12.69
2023-08-31T06:12:42.716Z,12.65
2023-08-31T06:15:09.575Z,12.62
2023-08-31T06:17:36.266Z,12.60
2023-08-31T06:20:03.282Z,12.62
2023-08-31T06:22:29.799Z,12.62
2023-08-31T06:24:56.327Z,12.63
2023-08-31T06:27:22.766Z,12.65
2023-08-31T06:29:49.257Z,12.67
2023-08-31T06:32:16.777Z,12.69
2023-08-31T06:34:43.369Z,12.69
2023-08-31T06:37:09.943Z,12.72
2023-08-31T06:39:37.098Z,12.72
2023-08-31T06:42:04.555Z,12.73
2023-08-31T06:44:33.054Z,12.70
2023-08-31T06:46:59.634Z,12.69
2023-08-31T06:49:26.065Z,12.68
2023-08-31T06:51:55.056Z,12.69
2023-08-31T06:54:21.672Z,12.73
2023-08-31T06:56:48.285Z,12.77
2023-08-31T06:59:14.743Z,12.80
2023-08-31T07:01:41.291Z,12.83
2023-08-31T07:04:08.621Z,12.88
2023-08-31T07:06:36.335Z,12.92
2023-08-31T07:09:04.450Z,12.99
2023-08-31T07:11:30.934Z,13.06
2023-08-31T07:13:58.892Z,13.14
2023-08-31T07:16:25.564Z,13.21
2023-08-31T07:18:52.076Z,13.24
2023-08-31T07:21:18.705Z,13.28
2023-08-31T07:23:45.390Z,13.30
2023-08-31T07:26:11.828Z,13.31
2023-08-31T07:28:38.372Z,13.33
2023-08-31T07:31:06.138Z,13.34
2023-08-31T07:33:34.103Z,13.33
2023-08-31T07:36:04.193Z,13.31
2023-08-31T07:38:32.262Z,13.33
2023-08-31T07:40:59.188Z,13.42
2023-08-31T07:43:27.234Z,13.59
2023-08-31T07:45:54.732Z,13.68
2023-08-31T07:48:21.234Z,13.73
2023-08-31T07:50:47.708Z,13.71
2023-08-31T07:53:14.491Z,13.66
2023-08-31T07:55:41.532Z,13.65
2023-08-31T07:58:08.042Z,13.67
2023-08-31T08:00:34.589Z,13.67
2023-08-31T08:03:01.212Z,13.67
2023-08-31T08:05:28.580Z,13.66
2023-08-31T08:07:54.948Z,13.70
2023-08-31T08:10:21.365Z,13.73
2023-08-31T08:12:48.021Z,13.81
2023-08-31T08:15:15.159Z,13.87
2023-08-31T08:17:41.747Z,13.95
2023-08-31T08:20:08.884Z,14.02
2023-08-31T08:22:37.096Z,14.08
2023-08-31T08:25:04.168Z,14.11
2023-08-31T08:27:32.884Z,14.19
2023-08-31T08:30:00.180Z,14.24
2023-08-31T08:32:26.862Z,14.25
2023-08-31T08:34:53.562Z,14.26
2023-08-31T08:37:20.811Z,14.26
2023-08-31T08:39:52.523Z,14.28
2023-08-31T08:42:20.427Z,14.31
2023-08-31T08:44:47.695Z,14.35
2023-08-31T08:47:15.041Z,14.42
2023-08-31T08:49:41.757Z,14.47
2023-08-31T08:52:08.918Z,14.50
2023-08-31T08:54:37.755Z,14.59
2023-08-31T08:57:05.843Z,14.79
2023-08-31T08:59:32.758Z,14.96
2023-08-31T09:01:59.292Z,15.13
2023-08-31T09:04:25.781Z,15.22
2023-08-31T09:06:52.474Z,15.30
2023-08-31T09:09:19.812Z,15.44
2023-08-31T09:11:46.805Z,15.58
2023-08-31T09:14:20.615Z,15.79
2023-08-31T09:16:52.532Z,15.94
2023-08-31T09:19:25.144Z,15.95
2023-08-31T09:21:52.758Z,15.83
2023-08-31T09:24:19.703Z,15.82
2023-08-31T09:26:48.873Z,15.84
2023-08-31T09:29:15.997Z,15.85
2023-08-31T09:31:45.241Z,15.81
2023-08-31T09:34:12.483Z,15.75
2023-08-31T09:36:39.389Z,15.70
2023-08-31T09:39:10.550Z,15.86
2023-08-31T09:41:53.620Z,16.14
2023-08-31T09:44:20.709Z,16.19
2023-08-31T09:46:47.820Z,16.53
2023-08-31T09:49:15.269Z,16.92
2023-08-31T09:51:47.029Z,17.35
2023-08-31T09:54:16.387Z,17.71
2023-08-31T09:56:44.801Z,17.97
2023-08-31T09:59:13.041Z,18.00
2023-08-31T10:01:44.153Z,18.07
2023-08-31T10:04:19.634Z,18.24
2023-08-31T10:06:46.864Z,18.44
2023-08-31T10:09:15.740Z,18.62
2023-08-31T10:11:46.172Z,18.87
2023-08-31T10:14:14.199Z,18.85
2023-08-31T10:16:42.164Z,18.91
2023-08-31T10:19:09.180Z,18.97
2023-08-31T10:21:36.061Z,19.18
2023-08-31T10:24:02.950Z,19.00
2023-08-31T10:26:31.088Z,18.97
2023-08-31T10:28:59.079Z,18.97
2023-08-31T10:31:29.956Z,19.00
2023-08-31T10:34:11.109Z,19.14
2023-08-31T10:36:45.297Z,19.19
2023-08-31T10:39:14.643Z,19.47
2023-08-31T10:41:41.643Z,19.92
2023-08-31T10:44:21.504Z,20.15
2023-08-31T10:46:48.693Z,20.45
2023-08-31T10:49:18.249Z,20.59
2023-08-31T10:51:46.945Z,20.71
2023-08-31T10:54:14.738Z,20.73
2023-08-31T10:57:04.067Z,21.06
2023-08-31T10:59:55.145Z,21.18
2023-08-31T11:02:39.412Z,20.91
2023-08-31T11:05:15.265Z,20.99
2023-08-31T11:07:45.688Z,21.04
2023-08-31T11:10:21.747Z,20.93
2023-08-31T11:12:50.850Z,21.08
2023-08-31T11:15:23.189Z,21.09
2023-08-31T11:17:51.758Z,21.18
2023-08-31T11:20:21.547Z,21.13
2023-08-31T11:22:57.084Z,21.23
2023-08-31T11:25:26.308Z,21.31
2023-08-31T11:28:01.053Z,21.41
2023-08-31T11:30:29.407Z,21.32
2023-08-31T11:32:57.078Z,21.39
2023-08-31T11:35:25.529Z,21.21
2023-08-31T11:37:56.257Z,21.24
2023-08-31T11:40:22.849Z,21.45
2023-08-31T11:42:52.609Z,21.37
2023-08-31T11:45:23.440Z,21.21
2023-08-31T11:47:50.997Z,21.03
2023-08-31T11:50:18.479Z,21.09
2023-08-31T11:52:45.427Z,21.26
2023-08-31T11:55:18.645Z,21.22
2023-08-31T11:57:53.055Z,21.38
2023-08-31T12:00:21.724Z,21.50
2023-08-31T12:03:01.987Z,21.63
2023-08-31T12:05:29.781Z,21.61
2023-08-31T12:07:57.261Z,21.71
2023-08-31T12:10:27.749Z,21.87
2023-08-31T12:12:57.591Z,21.85
2023-08-31T12:15:24.562Z,21.85
2023-08-31T12:17:55.909Z,21.90
2023-08-31T12:20:29.106Z,21.72
2023-08-31T12:22:55.588Z,21.55
2023-08-31T12:25:22.804Z,21.43
2023-08-31T12:27:53.237Z,21.43
2023-08-31T12:30:19.770Z,21.58
2023-08-31T12:32:46.324Z,21.71
2023-08-31T12:35:13.027Z,21.48
2023-08-31T12:37:39.683Z,21.14
2023-08-31T12:40:08.264Z,21.15
2023-08-31T12:42:34.895Z,21.20
2023-08-31T12:45:06.381Z,21.34
2023-08-31T12:47:32.876Z,21.42
2023-08-31T12:49:59.326Z,21.42
2023-08-31T12:52:25.798Z,21.43
2023-08-31T12:54:52.275Z,21.40
2023-08-31T12:57:18.747Z,21.24
2023-08-31T12:59:46.767Z,21.06
2023-08-31T13:02:13.504Z,21.12
2023-08-31T13:04:41.465Z,21.11
2023-08-31T13:07:08.405Z,21.13
2023-08-31T13:09:34.926Z,21.17
2023-08-31T13:12:01.379Z,21.12
2023-08-31T13:14:27.926Z,21.19
2023-08-31T13:16:54.613Z,21.24
2023-08-31T13:19:21.015Z,21.25
2023-08-31T13:21:47.504Z,21.24
2023-08-31T13:24:14.102Z,21.25
2023-08-31T13:26:40.561Z,21.19
2023-08-31T13:29:07.010Z,21.26
2023-08-31T13:31:34.910Z,21.27
2023-08-31T13:34:01.354Z,21.30
2023-08-31T13:36:27.811Z,21.27
2023-08-31T13:38:54.236Z,21.17
2023-08-31T13:41:20.652Z,21.08
2023-08-31T13:43:47.227Z,20.98
2023-08-31T13:46:13.751Z,20.99
2023-08-31T13:48:40.309Z,20.97
2023-08-31T13:51:06.768Z,21.05
2023-08-31T13:53:33.385Z,21.14
2023-08-31T13:55:59.901Z,21.10
2023-08-31T13:58:26.863Z,21.17
2023-08-31T14:00:53.337Z,21.22
2023-08-31T14:03:19.990Z,21.22
2023-08-31T14:05:50.432Z,21.28
2023-08-31T14:08:17.292Z,21.30
2023-08-31T14:10:43.610Z,21.24
2023-08-31T14:13:10.123Z,21.24
2023-08-31T14:15:37.581Z,21.17
2023-08-31T14:18:05.058Z,21.25
2023-08-31T14:20:32.747Z,21.20
2023-08-31T14:22:59.232Z,21.12
2023-08-31T14:25:26.775Z,21.12
2023-08-31T14:27:53.395Z,21.08
2023-08-31T14:30:19.908Z,21.06
2023-08-31T14:32:46.407Z,21.03
2023-08-31T14:35:12.886Z,21.09
2023-08-31T14:37:39.344Z,21.16
2023-08-31T14:40:08.306Z,21.14
2023-08-31T14:42:35.074Z,21.13
2023-08-31T14:45:01.560Z,21.03
2023-08-31T14:47:28.035Z,20.91
2023-08-31T14:49:56.207Z,20.84
2023-08-31T14:52:22.635Z,20.85
2023-08-31T14:54:49.544Z,20.78
2023-08-31T14:57:15.911Z,20.83
2023-08-31T14:59:43.141Z,20.83
2023-08-31T15:02:09.694Z,20.85
2023-08-31T15:04:36.286Z,20.88
2023-08-31T15:07:02.923Z,20.89
2023-08-31T15:09:29.473Z,20.86
2023-08-31T15:11:55.981Z,20.85
2023-08-31T15:14:22.557Z,20.79
2023-08-31T15:16:48.980Z,20.67
2023-08-31T15:19:15.468Z,20.67
2023-08-31T15:21:41.905Z,20.71
2023-08-31T15:24:08.522Z,20.64
2023-08-31T15:26:35.005Z,20.66
2023-08-31T15:29:01.470Z,20.66
2023-08-31T15:31:28.018Z,20.67
2023-08-31T15:33:54.590Z,20.61
2023-08-31T15:36:21.178Z,20.53
2023-08-31T15:38:47.708Z,20.49
2023-08-31T15:41:15.453Z,20.40
2023-08-31T15:43:43.617Z,20.37
2023-08-31T15:46:11.397Z,20.39
2023-08-31T15:48:38.252Z,20.40
2023-08-31T15:51:04.863Z,20.29
2023-08-31T15:53:32.718Z,20.25
2023-08-31T15:55:59.524Z,20.32
2023-08-31T15:58:27.814Z,20.28
2023-08-31T16:01:02.092Z,20.20
2023-08-31T16:03:33.438Z,20.03
2023-08-31T16:06:00.412Z,19.95
2023-08-31T16:08:27.537Z,19.96
2023-08-31T16:10:54.165Z,19.88
2023-08-31T16:13:20.650Z,19.78
2023-08-31T16:15:48.230Z,19.71
2023-08-31T16:18:15.249Z,19.65
2023-08-31T16:20:43.505Z,19.56
2023-08-31T16:23:10.467Z,19.45
2023-08-31T16:25:37.569Z,19.42
2023-08-31T16:28:04.789Z,19.32
2023-08-31T16:30:31.744Z,19.21
2023-08-31T16:32:58.129Z,19.22
2023-08-31T16:35:24.636Z,19.22
2023-08-31T16:37:51.029Z,19.18
2023-08-31T16:40:17.676Z,19.15
2023-08-31T16:42:44.251Z,19.07
2023-08-31T16:45:10.935Z,18.98
2023-08-31T16:47:38.438Z,18.96
2023-08-31T16:50:05.429Z,18.92
2023-08-31T16:52:32.010Z,18.92
2023-08-31T16:54:59.577Z,18.86
2023-08-31T16:57:26.341Z,18.82
2023-08-31T16:59:52.889Z,18.76
2023-08-31T17:02:19.449Z,18.73
2023-08-31T17:04:46.020Z,18.69
2023-08-31T17:07:12.575Z,18.66
2023-08-31T17:09:39.045Z,18.64
2023-08-31T17:12:05.986Z,18.60
2023-08-31T17:14:32.863Z,18.60
2023-08-31T17:17:01.912Z,18.53
2023-08-31T17:19:29.093Z,18.46
2023-08-31T17:21:55.646Z,18.42
2023-08-31T17:24:22.145Z,18.36
2023-08-31T17:26:48.835Z,18.30
2023-08-31T17:29:15.428Z,18.24
2023-08-31T17:31:43.213Z,18.18
2023-08-31T17:34:13.210Z,18.12
2023-08-31T17:36:39.801Z,18.05
2023-08-31T17:39:06.351Z,17.98
2023-08-31T17:41:32.799Z,17.91
2023-08-31T17:43:59.265Z,17.86
2023-08-31T17:46:25.851Z,17.84
2023-08-31T17:48:52.386Z,17.74
2023-08-31T17:51:19.015Z,17.67
2023-08-31T17:53:46.172Z,17.62
2023-08-31T17:56:12.629Z,17.56
2023-08-31T17:58:39.209Z,17.49
2023-08-31T18:01:06.047Z,17.41
2023-08-31T18:03:33.164Z,17.35
2023-08-31T18:05:59.804Z,17.27
2023-08-31T18:08:28.126Z,17.18
2023-08-31T18:10:55.380Z,17.09
2023-08-31T18:13:22.222Z,17.00
2023-08-31T18:15:52.574Z,16.93
2023-08-31T18:18:20.118Z,16.83
2023-08-31T18:20:46.950Z,16.76
2023-08-31T18:23:13.386Z,16.69
2023-08-31T18:25:39.946Z,16.61
2023-08-31T18:28:06.692Z,16.51
2023-08-31T18:30:33.238Z,16.44
2023-08-31T18:33:02.957Z,16.37
2023-08-31T18:35:29.652Z,16.32
2023-08-31T18:37:56.124Z,16.27
2023-08-31T18:40:22.687Z,16.18
2023-08-31T18:42:49.698Z,16.11
2023-08-31T18:45:18.981Z,16.06
2023-08-31T18:47:46.726Z,15.99
2023-08-31T18:50:21.142Z,15.93
2023-08-31T18:52:51.987Z,15.87
2023-08-31T18:55:18.891Z,15.76
2023-08-31T18:57:45.521Z,15.73
2023-08-31T19:00:14.239Z,15.72
2023-08-31T19:02:43.348Z,15.70
2023-08-31T19:05:11.135Z,15.70
2023-08-31T19:07:37.558Z,15.69
2023-08-31T19:10:08.529Z,15.70
2023-08-31T19:12:36.559Z,15.72
2023-08-31T19:15:04.363Z,15.73
2023-08-31T19:17:31.010Z,15.75
2023-08-31T19:19:57.517Z,15.72
2023-08-31T19:22:24.126Z,15.72
2023-08-31T19:24:52.356Z,15.69
2023-08-31T19:27:18.841Z,15.66
2023-08-31T19:29:45.944Z,15.60
2023-08-31T19:32:12.433Z,15.57
2023-08-31T19:34:39.130Z,15.53
2023-08-31T19:37:05.578Z,15.53
2023-08-31T19:39:34.868Z,15.53
2023-08-31T19:42:01.328Z,15.56
2023-08-31T19:44:27.927Z,15.60
2023-08-31T19:46:58.837Z,15.59
2023-08-31T19:49:25.433Z,15.59
2023-08-31T19:51:51.946Z,15.62
2023-08-31T19:54:18.489Z,15.64
2023-08-31T19:56:44.908Z,15.65
2023-08-31T19:59:11.575Z,15.64
2023-08-31T20:01:40.234Z,15.65
2023-08-31T20:04:07.033Z,15.66
2023-08-31T20:06:33.619Z,15.68
2023-08-31T20:09:00.181Z,15.71
2023-08-31T20:11:26.771Z,15.72
2023-08-31T20:13:56.981Z,15.70
2023-08-31T20:16:23.823Z,15.70
2023-08-31T20:18:50.541Z,15.70
2023-08-31T20:21:19.467Z,15.69
2023-08-31T20:23:46.085Z,15.70
2023-08-31T20:26:12.793Z,15.73
2023-08-31T20:28:39.187Z,15.73
2023-08-31T20:31:07.114Z,15.74
2023-08-31T20:33:35.413Z,15.76
2023-08-31T20:36:05.925Z,15.77
2023-08-31T20:38:32.426Z,15.74
2023-08-31T20:41:01.077Z,15.72
2023-08-31T20:43:27.521Z,15.73
2023-08-31T20:45:54.162Z,15.72
2023-08-31T20:48:22.062Z,15.70
2023-08-31T20:50:48.507Z,15.72
2023-08-31T20:53:15.013Z,15.72
2023-08-31T20:55:41.577Z,15.72
2023-08-31T20:58:08.132Z,15.67
2023-08-31T21:00:34.697Z,15.64
2023-08-31T21:03:01.198Z,15.62
2023-08-31T21:05:27.655Z,15.62
2023-08-31T21:07:54.330Z,15.62
2023-08-31T21:10:20.801Z,15.60
2023-08-31T21:12:47.346Z,15.57
2023-08-31T21:15:13.916Z,15.52
2023-08-31T21:17:40.381Z,15.53
2023-08-31T21:20:08.755Z,15.53
2023-08-31T21:25:01.908Z,15.49
2023-08-31T21:27:28.665Z,15.46
2023-08-31T21:29:55.306Z,15.44
2023-08-31T21:32:21.769Z,15.44
2023-08-31T21:34:48.324Z,15.39
2023-08-31T21:37:14.923Z,15.39
2023-08-31T21:39:41.431Z,15.39
2023-08-31T21:42:07.885Z,15.39
2023-08-31T21:44:34.564Z,15.37
2023-08-31T21:47:00.979Z,15.35
2023-08-31T21:49:27.438Z,15.31
2023-08-31T21:51:53.873Z,15.30
2023-08-31T21:54:20.390Z,15.29
2023-08-31T21:56:46.837Z,15.26
2023-08-31T21:59:13.367Z,15.26
2023-08-31T22:01:39.828Z,15.24
2023-08-31T22:04:06.625Z,15.22
2023-08-31T22:06:33.130Z,15.21
2023-08-31T22:08:59.647Z,15.17
2023-08-31T22:11:26.199Z,15.14
2023-08-31T22:13:52.871Z,15.05
2023-08-31T22:16:29.541Z,15.04
2023-08-31T22:18:57.025Z,15.06
2023-08-31T22:21:23.497Z,15.08
2023-08-31T22:23:50.356Z,15.08
2023-08-31T22:26:16.850Z,15.05
2023-08-31T22:28:43.293Z,14.95
2023-08-31T22:31:09.737Z,14.90
2023-08-31T22:33:37.227Z,14.83
2023-08-31T22:36:06.986Z,14.80
2023-08-31T22:38:33.558Z,14.82
2023-08-31T22:41:00.040Z,14.82
2023-08-31T22:43:26.748Z,14.75
2023-08-31T22:45:59.407Z,14.70
2023-08-31T22:48:26.121Z,14.67
2023-08-31T22:51:04.764Z,14.68
2023-08-31T22:53:31.662Z,14.70
2023-08-31T22:55:58.128Z,14.68
2023-08-31T22:58:24.561Z,14.68
2023-08-31T23:00:53.276Z,14.69
2023-08-31T23:03:20.911Z,14.70
2023-08-31T23:05:48.055Z,14.70
2023-08-31T23:08:15.035Z,14.70
2023-08-31T23:10:41.865Z,14.68
2023-08-31T23:13:08.268Z,14.65
2023-08-31T23:15:37.791Z,14.65
2023-08-31T23:18:04.957Z,14.63
2023-08-31T23:20:31.454Z,14.66
2023-08-31T23:22:57.874Z,14.65
2023-08-31T23:25:24.399Z,14.62
2023-08-31T23:27:50.820Z,14.60
2023-08-31T23:30:17.872Z,14.60
2023-08-31T23:32:44.493Z,14.59
2023-08-31T23:35:11.615Z,14.59
2023-08-31T23:37:38.146Z,14.59
2023-08-31T23:40:10.609Z,14.60
2023-08-31T23:42:37.260Z,14.57
2023-08-31T23:45:04.816Z,14.58
2023-08-31T23:47:32.730Z,14.56
2023-08-31T23:49:59.292Z,14.55
2023-08-31T23:52:25.752Z,14.56
2023-08-31T23:54:52.269Z,14.58
2023-08-31T23:57:18.778Z,14.57
2023-08-31T23:59:45.265Z,14.54
